sensor_id;sensor_type;location;lat;lon;timestamp;pressure;altitude;pressure_sealevel;temperature;humidity
69772;BME280;57046;45.988;18.664;2023-04-27T00:00:58;100879.91;;;7.11;69.90
69772;BME280;57046;45.988;18.664;2023-04-27T00:03:23;100878.59;;;7.09;70.63
69772;BME280;57046;45.988;18.664;2023-04-27T00:05:49;100880.44;;;7.13;70.20
69772;BME280;57046;45.988;18.664;2023-04-27T00:08:14;100882.09;;;7.09;70.18
69772;BME280;57046;45.988;18.664;2023-04-27T00:10:40;100883.41;;;7.12;69.75
69772;BME280;57046;45.988;18.664;2023-04-27T00:13:05;100885.25;;;7.16;69.27
69772;BME280;57046;45.988;18.664;2023-04-27T00:15:30;100888.44;;;7.18;69.59
69772;BME280;57046;45.988;18.664;2023-04-27T00:17:56;100889.19;;;7.24;70.22
69772;BME280;57046;45.988;18.664;2023-04-27T00:20:21;100887.06;;;7.21;68.54
69772;BME280;57046;45.988;18.664;2023-04-27T00:22:47;100886.50;;;7.24;67.60
69772;BME280;57046;45.988;18.664;2023-04-27T00:25:12;100886.50;;;7.24;69.28
69772;BME280;57046;45.988;18.664;2023-04-27T00:27:37;100889.19;;;7.24;68.12
69772;BME280;57046;45.988;18.664;2023-04-27T00:30:03;100885.47;;;7.20;67.98
69772;BME280;57046;45.988;18.664;2023-04-27T00:32:29;100895.88;;;7.27;70.06
69772;BME280;57046;45.988;18.664;2023-04-27T00:34:54;100895.06;;;7.26;69.79
69772;BME280;57046;45.988;18.664;2023-04-27T00:37:20;100888.88;;;7.26;69.71
69772;BME280;57046;45.988;18.664;2023-04-27T00:39:45;100892.94;;;7.23;68.81
69772;BME280;57046;45.988;18.664;2023-04-27T00:42:10;100891.34;;;7.22;69.28
69772;BME280;57046;45.988;18.664;2023-04-27T00:44:36;100882.47;;;7.22;69.09
69772;BME280;57046;45.988;18.664;2023-04-27T00:47:01;100887.06;;;7.21;68.62
69772;BME280;57046;45.988;18.664;2023-04-27T00:49:27;100885.16;;;7.22;69.11
69772;BME280;57046;45.988;18.664;2023-04-27T00:51:52;100889.22;;;7.19;68.71
69772;BME280;57046;45.988;18.664;2023-04-27T00:54:19;100888.50;;;7.13;69.89
69772;BME280;57046;45.988;18.664;2023-04-27T00:56:50;100879.63;;;7.13;70.14
69772;BME280;57046;45.988;18.664;2023-04-27T00:59:16;100884.78;;;7.09;70.92
69772;BME280;57046;45.988;18.664;2023-04-27T01:01:42;100878.31;;;7.10;69.83
69772;BME280;57046;45.988;18.664;2023-04-27T01:04:08;100873.84;;;7.01;71.29
69772;BME280;57046;45.988;18.664;2023-04-27T01:06:33;100877.63;;;7.00;69.85
69772;BME280;57046;45.988;18.664;2023-04-27T01:08:58;100881.13;;;7.00;69.11
69772;BME280;57046;45.988;18.664;2023-04-27T01:11:24;100888.16;;;6.96;66.86
69772;BME280;57046;45.988;18.664;2023-04-27T01:13:49;100885.50;;;6.91;65.13
69772;BME280;57046;45.988;18.664;2023-04-27T01:16:18;100900.50;;;6.97;65.50
69772;BME280;57046;45.988;18.664;2023-04-27T01:18:44;100893.00;;;6.94;66.74
69772;BME280;57046;45.988;18.664;2023-04-27T01:21:09;100890.97;;;6.81;68.22
69772;BME280;57046;45.988;18.664;2023-04-27T01:23:34;100893.09;;;6.84;68.95
69772;BME280;57046;45.988;18.664;2023-04-27T01:26:00;100899.28;;;6.85;69.95
69772;BME280;57046;45.988;18.664;2023-04-27T01:28:25;100895.22;;;6.58;70.04
69772;BME280;57046;45.988;18.664;2023-04-27T01:30:50;100895.22;;;6.58;69.66
69772;BME280;57046;45.988;18.664;2023-04-27T01:33:16;100910.28;;;6.54;69.97
69772;BME280;57046;45.988;18.664;2023-04-27T01:35:41;100907.09;;;6.52;69.89
69772;BME280;57046;45.988;18.664;2023-04-27T01:38:06;100905.16;;;6.58;70.04
69772;BME280;57046;45.988;18.664;2023-04-27T01:40:32;100906.78;;;6.59;70.95
69772;BME280;57046;45.988;18.664;2023-04-27T01:42:57;100911.81;;;6.65;70.65
69772;BME280;57046;45.988;18.664;2023-04-27T01:45:22;100864.81;;;6.39;70.03
69772;BME280;57046;45.988;18.664;2023-04-27T01:47:51;100904.03;;;6.64;70.64
69772;BME280;57046;45.988;18.664;2023-04-27T01:50:17;100913.19;;;6.63;71.09
69772;BME280;57046;45.988;18.664;2023-04-27T01:52:42;100909.72;;;6.57;72.27
69772;BME280;57046;45.988;18.664;2023-04-27T01:55:08;100904.09;;;6.59;71.87
69772;BME280;57046;45.988;18.664;2023-04-27T01:57:33;100908.16;;;6.56;71.73
69772;BME280;57046;45.988;18.664;2023-04-27T01:59:58;100916.50;;;6.50;72.48
69772;BME280;57046;45.988;18.664;2023-04-27T02:02:24;100911.13;;;6.50;71.96
69772;BME280;57046;45.988;18.664;2023-04-27T02:04:49;100913.59;;;6.46;71.43
69772;BME280;57046;45.988;18.664;2023-04-27T02:07:14;100901.84;;;6.37;71.93
69772;BME280;57046;45.988;18.664;2023-04-27T02:09:40;100912.56;;;6.42;71.26
69772;BME280;57046;45.988;18.664;2023-04-27T02:12:05;100910.69;;;6.43;70.88
69772;BME280;57046;45.988;18.664;2023-04-27T02:14:30;100908.81;;;6.38;71.59
69772;BME280;57046;45.988;18.664;2023-04-27T02:16:56;100913.94;;;6.35;72.11
69772;BME280;57046;45.988;18.664;2023-04-27T02:19:21;100914.53;;;6.27;71.96
69772;BME280;57046;45.988;18.664;2023-04-27T02:21:46;100912.66;;;6.27;71.16
69772;BME280;57046;45.988;18.664;2023-04-27T02:24:12;100912.72;;;6.22;71.82
69772;BME280;57046;45.988;18.664;2023-04-27T02:26:37;100918.09;;;6.22;71.82
69772;BME280;57046;45.988;18.664;2023-04-27T02:29:02;100916.47;;;6.21;69.43
69772;BME280;57046;45.988;18.664;2023-04-27T02:31:28;100912.19;;;6.20;71.58
69772;BME280;57046;45.988;18.664;2023-04-27T02:33:53;100914.84;;;6.20;71.88
69772;BME280;57046;45.988;18.664;2023-04-27T02:36:18;100912.72;;;6.17;70.01
69772;BME280;57046;45.988;18.664;2023-04-27T02:38:44;100911.97;;;6.11;70.13
69772;BME280;57046;45.988;18.664;2023-04-27T02:41:09;100911.19;;;6.11;72.01
69772;BME280;57046;45.988;18.664;2023-04-27T02:43:35;100911.44;;;6.09;72.93
69772;BME280;57046;45.988;18.664;2023-04-27T02:46:03;100910.88;;;6.12;72.14
69772;BME280;57046;45.988;18.664;2023-04-27T02:48:32;100921.09;;;6.10;73.15
69772;BME280;57046;45.988;18.664;2023-04-27T02:50:57;100909.38;;;6.01;72.29
69772;BME280;57046;45.988;18.664;2023-04-27T02:53:23;100923.53;;;6.07;70.68
69772;BME280;57046;45.988;18.664;2023-04-27T02:55:48;100926.50;;;6.05;71.45
69772;BME280;57046;45.988;18.664;2023-04-27T02:58:15;100921.47;;;5.94;70.89
69772;BME280;57046;45.988;18.664;2023-04-27T03:00:41;100934.84;;;5.99;70.92
69772;BME280;57046;45.988;18.664;2023-04-27T03:03:06;100927.66;;;5.94;70.20
69772;BME280;57046;45.988;18.664;2023-04-27T03:05:32;100934.38;;;5.92;70.50
69772;BME280;57046;45.988;18.664;2023-04-27T03:07:58;100932.47;;;5.92;70.60
69772;BME280;57046;45.988;18.664;2023-04-27T03:10:23;100933.03;;;5.89;72.45
69772;BME280;57046;45.988;18.664;2023-04-27T03:12:49;100930.63;;;5.88;72.40
69772;BME280;57046;45.988;18.664;2023-04-27T03:15:14;100941.88;;;5.85;72.14
69772;BME280;57046;45.988;18.664;2023-04-27T03:17:39;100940.28;;;5.84;73.01
69772;BME280;57046;45.988;18.664;2023-04-27T03:20:05;100929.03;;;5.82;73.78
69772;BME280;57046;45.988;18.664;2023-04-27T03:22:30;100937.59;;;5.84;74.36
69772;BME280;57046;45.988;18.664;2023-04-27T03:24:56;100942.44;;;5.82;73.79
69772;BME280;57046;45.988;18.664;2023-04-27T03:27:21;100939.22;;;5.80;75.12
69772;BME280;57046;45.988;18.664;2023-04-27T03:29:50;100949.44;;;5.73;75.25
69772;BME280;57046;45.988;18.664;2023-04-27T03:32:15;100943.81;;;5.69;74.17
69772;BME280;57046;45.988;18.664;2023-04-27T03:34:41;100947.09;;;5.61;74.65
69772;BME280;57046;45.988;18.664;2023-04-27T03:37:06;100958.31;;;5.68;74.82
69772;BME280;57046;45.988;18.664;2023-04-27T03:39:31;100960.47;;;5.66;74.63
69772;BME280;57046;45.988;18.664;2023-04-27T03:41:57;100964.22;;;5.65;74.28
69772;BME280;57046;45.988;18.664;2023-04-27T03:44:22;100965.56;;;5.62;74.53
69772;BME280;57046;45.988;18.664;2023-04-27T03:46:47;100960.22;;;5.62;73.58
69772;BME280;57046;45.988;18.664;2023-04-27T03:49:13;100962.38;;;5.60;73.67
69772;BME280;57046;45.988;18.664;2023-04-27T03:51:38;100962.06;;;5.62;74.11
69772;BME280;57046;45.988;18.664;2023-04-27T03:54:03;100966.38;;;5.63;74.95
69772;BME280;57046;45.988;18.664;2023-04-27T03:56:29;100974.97;;;5.60;75.20
69772;BME280;57046;45.988;18.664;2023-04-27T03:58:54;100975.22;;;5.58;74.44
69772;BME280;57046;45.988;18.664;2023-04-27T04:01:19;100980.84;;;5.62;73.64
69772;BME280;57046;45.988;18.664;2023-04-27T04:03:45;100982.19;;;5.59;75.11
69772;BME280;57046;45.988;18.664;2023-04-27T04:06:10;100984.34;;;5.62;75.98
69772;BME280;57046;45.988;18.664;2023-04-27T04:08:35;100983.25;;;5.63;75.27
69772;BME280;57046;45.988;18.664;2023-04-27T04:11:01;100992.38;;;5.62;73.69
69772;BME280;57046;45.988;18.664;2023-04-27T04:13:26;100988.06;;;5.67;73.69
69772;BME280;57046;45.988;18.664;2023-04-27T04:16:02;100995.06;;;5.68;73.31
69772;BME280;57046;45.988;18.664;2023-04-27T04:18:28;100991.56;;;5.67;71.96
69772;BME280;57046;45.988;18.664;2023-04-27T04:20:53;101000.66;;;5.71;72.38
69772;BME280;57046;45.988;18.664;2023-04-27T04:23:18;100990.50;;;5.68;71.65
69772;BME280;57046;45.988;18.664;2023-04-27T04:25:44;101001.69;;;5.75;70.48
69772;BME280;57046;45.988;18.664;2023-04-27T04:28:09;100991.81;;;5.71;69.86
69772;BME280;57046;45.988;18.664;2023-04-27T04:30:35;100997.94;;;5.81;68.86
69772;BME280;57046;45.988;18.664;2023-04-27T04:33:00;100997.66;;;5.83;69.50
69772;BME280;57046;45.988;18.664;2023-04-27T04:35:25;101001.16;;;5.88;70.22
69772;BME280;57046;45.988;18.664;2023-04-27T04:37:51;101007.56;;;5.92;70.60
69772;BME280;57046;45.988;18.664;2023-04-27T04:40:16;101005.94;;;6.01;71.07
69772;BME280;57046;45.988;18.664;2023-04-27T04:42:41;101001.84;;;6.09;71.05
69772;BME280;57046;45.988;18.664;2023-04-27T04:45:07;101005.03;;;6.16;71.22
69772;BME280;57046;45.988;18.664;2023-04-27T04:47:32;101007.94;;;6.25;72.00
69772;BME280;57046;45.988;18.664;2023-04-27T04:49:58;101005.78;;;6.27;72.30
69772;BME280;57046;45.988;18.664;2023-04-27T04:52:24;101017.50;;;6.46;73.52
69772;BME280;57046;45.988;18.664;2023-04-27T04:54:52;101017.69;;;6.54;73.39
69772;BME280;57046;45.988;18.664;2023-04-27T04:57:18;101005.00;;;6.65;71.06
69772;BME280;57046;45.988;18.664;2023-04-27T04:59:43;101010.78;;;6.82;70.79
69772;BME280;57046;45.988;18.664;2023-04-27T05:02:08;101013.38;;;6.92;70.62
69772;BME280;57046;45.988;18.664;2023-04-27T05:04:34;101022.97;;;7.03;70.82
69772;BME280;57046;45.988;18.664;2023-04-27T05:06:59;101034.44;;;7.09;70.43
69772;BME280;57046;45.988;18.664;2023-04-27T05:09:24;101032.25;;;7.16;71.34
69772;BME280;57046;45.988;18.664;2023-04-27T05:11:50;101027.59;;;7.22;72.65
69772;BME280;57046;45.988;18.664;2023-04-27T05:14:15;101036.47;;;7.22;72.66
69772;BME280;57046;45.988;18.664;2023-04-27T05:16:41;101034.22;;;7.34;71.35
69772;BME280;57046;45.988;18.664;2023-04-27T05:19:06;101040.00;;;7.46;72.33
69772;BME280;57046;45.988;18.664;2023-04-27T05:21:31;101040.09;;;7.65;72.71
69772;BME280;57046;45.988;18.664;2023-04-27T05:23:57;101042.03;;;7.83;73.37
69772;BME280;57046;45.988;18.664;2023-04-27T05:26:22;101030.06;;;7.94;73.75
69772;BME280;57046;45.988;18.664;2023-04-27T05:28:47;101039.75;;;8.14;69.16
69772;BME280;57046;45.988;18.664;2023-04-27T05:31:13;101034.13;;;8.34;68.85
69772;BME280;57046;45.988;18.664;2023-04-27T05:33:38;101032.78;;;8.37;67.51
69772;BME280;57046;45.988;18.664;2023-04-27T05:36:04;101037.94;;;8.52;69.59
69772;BME280;57046;45.988;18.664;2023-04-27T05:38:29;101040.25;;;8.58;68.21
69772;BME280;57046;45.988;18.664;2023-04-27T05:40:58;101040.25;;;8.58;65.60
69772;BME280;57046;45.988;18.664;2023-04-27T05:43:24;101043.38;;;8.65;65.40
69772;BME280;57046;45.988;18.664;2023-04-27T05:45:50;101050.66;;;8.65;64.37
69772;BME280;57046;45.988;18.664;2023-04-27T05:48:18;101044.19;;;8.66;63.14
69772;BME280;57046;45.988;18.664;2023-04-27T05:50:43;101050.66;;;8.65;62.67
69772;BME280;57046;45.988;18.664;2023-04-27T05:53:09;101054.09;;;8.71;63.27
69772;BME280;57046;45.988;18.664;2023-04-27T05:55:34;101052.56;;;8.64;63.90
69772;BME280;57046;45.988;18.664;2023-04-27T05:58:00;101041.72;;;8.69;63.57
69772;BME280;57046;45.988;18.664;2023-04-27T06:00:25;101052.13;;;8.76;63.69
69772;BME280;57046;45.988;18.664;2023-04-27T06:02:51;101049.34;;;8.81;64.48
69772;BME280;57046;45.988;18.664;2023-04-27T06:05:16;101057.41;;;9.00;65.16
69772;BME280;57046;45.988;18.664;2023-04-27T06:07:42;101060.22;;;9.08;63.87
69772;BME280;57046;45.988;18.664;2023-04-27T06:10:08;101058.84;;;9.11;63.57
69772;BME280;57046;45.988;18.664;2023-04-27T06:12:33;101066.38;;;9.28;63.74
69772;BME280;57046;45.988;18.664;2023-04-27T06:14:59;101064.00;;;9.40;64.82
69772;BME280;57046;45.988;18.664;2023-04-27T06:17:24;101065.44;;;9.51;61.08
69772;BME280;57046;45.988;18.664;2023-04-27T06:19:49;101063.63;;;9.60;59.74
69772;BME280;57046;45.988;18.664;2023-04-27T06:22:15;101066.06;;;9.75;61.63
69772;BME280;57046;45.988;18.664;2023-04-27T06:24:40;101070.25;;;9.81;61.95
69772;BME280;57046;45.988;18.664;2023-04-27T06:27:05;101066.66;;;9.86;60.06
69772;BME280;57046;45.988;18.664;2023-04-27T06:29:31;101068.16;;;10.05;58.34
69772;BME280;57046;45.988;18.664;2023-04-27T06:31:56;101066.38;;;10.14;58.85
69772;BME280;57046;45.988;18.664;2023-04-27T06:34:21;101074.25;;;10.25;59.62
69772;BME280;57046;45.988;18.664;2023-04-27T06:36:47;101077.88;;;10.34;58.77
69772;BME280;57046;45.988;18.664;2023-04-27T06:39:12;101077.75;;;10.39;56.90
69772;BME280;57046;45.988;18.664;2023-04-27T06:41:37;101071.72;;;10.55;57.51
69772;BME280;57046;45.988;18.664;2023-04-27T06:44:02;101072.09;;;10.62;55.37
69772;BME280;57046;45.988;18.664;2023-04-27T06:46:28;101074.09;;;10.70;55.80
69772;BME280;57046;45.988;18.664;2023-04-27T06:48:53;101076.53;;;10.81;56.50
69772;BME280;57046;45.988;18.664;2023-04-27T06:51:18;101082.00;;;10.89;52.83
69772;BME280;57046;45.988;18.664;2023-04-27T06:53:44;101079.38;;;10.98;50.97
69772;BME280;57046;45.988;18.664;2023-04-27T06:56:10;101078.59;;;10.97;51.22
69772;BME280;57046;45.988;18.664;2023-04-27T06:58:36;101069.38;;;10.98;53.30
69772;BME280;57046;45.988;18.664;2023-04-27T07:01:02;101068.94;;;11.05;52.42
69772;BME280;57046;45.988;18.664;2023-04-27T07:03:27;101076.28;;;11.13;52.76
69772;BME280;57046;45.988;18.664;2023-04-27T07:05:53;101075.28;;;11.22;55.35
69772;BME280;57046;45.988;18.664;2023-04-27T07:08:18;101081.19;;;11.33;56.15
69772;BME280;57046;45.988;18.664;2023-04-27T07:10:43;101079.28;;;11.56;55.87
69772;BME280;57046;45.988;18.664;2023-04-27T07:13:08;101083.28;;;11.58;52.73
69772;BME280;57046;45.988;18.664;2023-04-27T07:15:34;101086.44;;;11.60;53.43
69772;BME280;57046;45.988;18.664;2023-04-27T07:17:59;101083.81;;;11.69;53.47
69772;BME280;57046;45.988;18.664;2023-04-27T07:20:25;101079.75;;;11.80;51.38
69772;BME280;57046;45.988;18.664;2023-04-27T07:22:50;101082.94;;;11.91;53.43
69772;BME280;57046;45.988;18.664;2023-04-27T07:25:15;101084.59;;;12.00;50.83
69772;BME280;57046;45.988;18.664;2023-04-27T07:27:41;101085.72;;;12.08;49.71
69772;BME280;57046;45.988;18.664;2023-04-27T07:30:07;101073.66;;;12.14;48.75
69772;BME280;57046;45.988;18.664;2023-04-27T07:32:32;101085.59;;;12.21;48.06
69772;BME280;57046;45.988;18.664;2023-04-27T07:34:57;101081.34;;;12.38;49.33
69772;BME280;57046;45.988;18.664;2023-04-27T07:37:23;101089.16;;;12.39;49.29
69772;BME280;57046;45.988;18.664;2023-04-27T07:39:49;101087.88;;;12.45;47.62
69772;BME280;57046;45.988;18.664;2023-04-27T07:42:14;101093.16;;;12.50;46.29
69772;BME280;57046;45.988;18.664;2023-04-27T07:44:40;101100.03;;;12.48;46.32
69772;BME280;57046;45.988;18.664;2023-04-27T07:47:05;101098.75;;;12.62;48.61
69772;BME280;57046;45.988;18.664;2023-04-27T07:49:31;101096.19;;;12.49;44.83
69772;BME280;57046;45.988;18.664;2023-04-27T07:51:56;101092.69;;;12.57;47.80
69772;BME280;57046;45.988;18.664;2023-04-27T07:54:21;101096.69;;;12.68;45.22
69772;BME280;57046;45.988;18.664;2023-04-27T07:56:47;101094.16;;;12.80;46.52
69772;BME280;57046;45.988;18.664;2023-04-27T07:59:12;101093.84;;;12.82;46.45
69772;BME280;57046;45.988;18.664;2023-04-27T08:01:37;101102.31;;;12.89;44.89
69772;BME280;57046;45.988;18.664;2023-04-27T08:04:03;101101.50;;;13.05;44.56
69772;BME280;57046;45.988;18.664;2023-04-27T08:06:28;101098.16;;;13.17;45.59
69772;BME280;57046;45.988;18.664;2023-04-27T08:08:53;101094.00;;;13.19;45.55
69772;BME280;57046;45.988;18.664;2023-04-27T08:11:19;101104.53;;;13.30;43.90
69772;BME280;57046;45.988;18.664;2023-04-27T08:13:44;101096.38;;;13.38;44.10
69772;BME280;57046;45.988;18.664;2023-04-27T08:16:10;101103.50;;;13.51;44.47
69772;BME280;57046;45.988;18.664;2023-04-27T08:18:35;101097.59;;;13.58;43.79
69772;BME280;57046;45.988;18.664;2023-04-27T08:21:01;101102.22;;;13.66;43.87
69772;BME280;57046;45.988;18.664;2023-04-27T08:23:26;101102.00;;;13.71;43.56
69772;BME280;57046;45.988;18.664;2023-04-27T08:25:51;101100.25;;;13.75;43.10
69772;BME280;57046;45.988;18.664;2023-04-27T08:28:17;101096.66;;;13.92;43.34
69772;BME280;57046;45.988;18.664;2023-04-27T08:30:42;101096.94;;;14.07;42.32
69772;BME280;57046;45.988;18.664;2023-04-27T08:33:07;101080.25;;;14.17;42.81
69772;BME280;57046;45.988;18.664;2023-04-27T08:35:33;101095.16;;;14.11;41.64
69772;BME280;57046;45.988;18.664;2023-04-27T08:37:58;101098.53;;;14.08;39.37
69772;BME280;57046;45.988;18.664;2023-04-27T08:40:24;101103.06;;;14.34;37.21
69772;BME280;57046;45.988;18.664;2023-04-27T08:42:54;101098.91;;;14.57;38.39
69772;BME280;57046;45.988;18.664;2023-04-27T08:45:21;101097.31;;;14.56;37.03
69772;BME280;57046;45.988;18.664;2023-04-27T08:47:47;101100.81;;;14.56;35.92
69772;BME280;57046;45.988;18.664;2023-04-27T08:50:12;101097.38;;;14.68;34.85
69772;BME280;57046;45.988;18.664;2023-04-27T08:52:38;101106.34;;;14.68;37.29
69772;BME280;57046;45.988;18.664;2023-04-27T08:55:03;101103.94;;;14.88;38.19
69772;BME280;57046;45.988;18.664;2023-04-27T08:57:29;101102.03;;;14.88;36.85
69772;BME280;57046;45.988;18.664;2023-04-27T08:59:58;101101.97;;;14.97;38.52
69772;BME280;57046;45.988;18.664;2023-04-27T09:02:24;101097.91;;;15.03;38.11
69772;BME280;57046;45.988;18.664;2023-04-27T09:04:49;101090.56;;;15.03;36.30
69772;BME280;57046;45.988;18.664;2023-04-27T09:07:16;101094.69;;;15.21;39.92
69772;BME280;57046;45.988;18.664;2023-04-27T09:09:43;101094.50;;;15.26;38.17
69772;BME280;57046;45.988;18.664;2023-04-27T09:12:16;101085.41;;;15.35;38.29
69772;BME280;57046;45.988;18.664;2023-04-27T09:14:42;101068.50;;;15.29;37.59
69772;BME280;57046;45.988;18.664;2023-04-27T09:17:08;101087.72;;;15.45;36.19
69772;BME280;57046;45.988;18.664;2023-04-27T09:19:33;101090.53;;;15.57;38.75
69772;BME280;57046;45.988;18.664;2023-04-27T09:22:06;101076.16;;;15.48;36.57
69772;BME280;57046;45.988;18.664;2023-04-27T09:24:33;101080.19;;;15.62;37.41
69772;BME280;57046;45.988;18.664;2023-04-27T09:26:58;101082.34;;;15.69;38.19
69772;BME280;57046;45.988;18.664;2023-04-27T09:29:37;101073.53;;;15.84;35.75
69772;BME280;57046;45.988;18.664;2023-04-27T09:32:22;101065.66;;;15.83;35.36
69772;BME280;57046;45.988;18.664;2023-04-27T09:34:48;101065.13;;;16.01;36.51
69772;BME280;57046;45.988;18.664;2023-04-27T09:37:14;101076.13;;;16.17;35.89
69772;BME280;57046;45.988;18.664;2023-04-27T09:39:40;101063.19;;;16.14;35.42
69772;BME280;57046;45.988;18.664;2023-04-27T09:42:06;101065.44;;;16.24;35.44
69772;BME280;57046;45.988;18.664;2023-04-27T09:44:32;101064.75;;;16.27;35.52
69772;BME280;57046;45.988;18.664;2023-04-27T09:46:58;101066.81;;;16.06;33.22
69772;BME280;57046;45.988;18.664;2023-04-27T09:49:25;101018.66;;;15.98;35.68
69772;BME280;57046;45.988;18.664;2023-04-27T09:51:50;101069.66;;;16.21;35.42
69772;BME280;57046;45.988;18.664;2023-04-27T09:54:16;101056.69;;;16.43;35.99
69772;BME280;57046;45.988;18.664;2023-04-27T09:56:59;101055.72;;;16.51;36.74
69772;BME280;57046;45.988;18.664;2023-04-27T10:02:15;101051.63;;;16.69;34.84
69772;BME280;57046;45.988;18.664;2023-04-27T10:07:14;101030.31;;;16.35;37.01
69772;BME280;57046;45.988;18.664;2023-04-27T10:09:40;101040.53;;;16.50;36.78
69772;BME280;57046;45.988;18.664;2023-04-27T10:12:26;101049.81;;;16.61;35.62
69772;BME280;57046;45.988;18.664;2023-04-27T10:14:59;101037.34;;;16.60;35.24
69772;BME280;57046;45.988;18.664;2023-04-27T10:17:31;101037.22;;;16.84;37.42
69772;BME280;57046;45.988;18.664;2023-04-27T10:20:04;101037.31;;;16.88;37.29
69772;BME280;57046;45.988;18.664;2023-04-27T10:22:47;101031.44;;;16.46;34.01
69772;BME280;57046;45.988;18.664;2023-04-27T10:25:22;101028.88;;;16.65;35.65
69772;BME280;57046;45.988;18.664;2023-04-27T10:27:56;101023.25;;;16.86;36.34
69772;BME280;57046;45.988;18.664;2023-04-27T10:30:23;101031.19;;;16.91;36.31
69772;BME280;57046;45.988;18.664;2023-04-27T10:32:56;101016.66;;;16.87;34.84
69772;BME280;57046;45.988;18.664;2023-04-27T10:35:40;100980.78;;;16.88;33.79
69772;BME280;57046;45.988;18.664;2023-04-27T10:40:32;101023.44;;;16.93;33.07
69772;BME280;57046;45.988;18.664;2023-04-27T10:43:12;101001.00;;;17.15;34.25
69772;BME280;57046;45.988;18.664;2023-04-27T10:45:38;101027.66;;;17.49;35.08
69772;BME280;57046;45.988;18.664;2023-04-27T10:48:04;101032.94;;;17.26;33.85
69772;BME280;57046;45.988;18.664;2023-04-27T10:50:29;101037.09;;;16.93;33.65
69772;BME280;57046;45.988;18.664;2023-04-27T10:52:59;101022.84;;;17.15;34.06
69772;BME280;57046;45.988;18.664;2023-04-27T10:55:25;101033.03;;;17.46;34.53
69772;BME280;57046;45.988;18.664;2023-04-27T10:57:52;101019.81;;;17.95;37.00
69772;BME280;57046;45.988;18.664;2023-04-27T11:00:41;101027.34;;;17.66;32.47
69772;BME280;57046;45.988;18.664;2023-04-27T11:03:13;101026.19;;;17.67;34.68
69772;BME280;57046;45.988;18.664;2023-04-27T11:05:40;101025.13;;;17.88;33.37
69772;BME280;57046;45.988;18.664;2023-04-27T11:08:16;101026.59;;;18.16;32.73
69772;BME280;57046;45.988;18.664;2023-04-27T11:10:48;101022.03;;;18.24;34.19
69772;BME280;57046;45.988;18.664;2023-04-27T11:13:24;101025.38;;;18.33;33.03
69772;BME280;57046;45.988;18.664;2023-04-27T11:15:57;101035.47;;;18.64;34.01
69772;BME280;57046;45.988;18.664;2023-04-27T11:18:29;101019.69;;;18.57;34.23
69772;BME280;57046;45.988;18.664;2023-04-27T11:21:08;100989.09;;;18.36;32.28
69772;BME280;57046;45.988;18.664;2023-04-27T11:23:35;101023.69;;;17.94;31.89
69772;BME280;57046;45.988;18.664;2023-04-27T11:26:11;101029.66;;;18.15;31.96
69772;BME280;57046;45.988;18.664;2023-04-27T11:28:37;101029.09;;;17.90;32.50
69772;BME280;57046;45.988;18.664;2023-04-27T11:31:02;101022.31;;;17.84;32.63
69772;BME280;57046;45.988;18.664;2023-04-27T11:33:28;101023.53;;;18.02;33.11
69772;BME280;57046;45.988;18.664;2023-04-27T11:35:54;101013.53;;;18.10;33.93
69772;BME280;57046;45.988;18.664;2023-04-27T11:38:19;101031.13;;;18.28;32.52
69772;BME280;57046;45.988;18.664;2023-04-27T11:40:46;101030.94;;;18.37;33.66
69772;BME280;57046;45.988;18.664;2023-04-27T11:43:13;101031.84;;;17.74;32.44
69772;BME280;57046;45.988;18.664;2023-04-27T11:45:44;101027.06;;;18.03;33.12
69772;BME280;57046;45.988;18.664;2023-04-27T11:48:14;101028.66;;;17.57;32.48
69772;BME280;57046;45.988;18.664;2023-04-27T11:50:39;101021.53;;;17.68;32.29
69772;BME280;57046;45.988;18.664;2023-04-27T11:53:04;101020.88;;;18.06;31.75
69772;BME280;57046;45.988;18.664;2023-04-27T11:55:34;101010.94;;;18.17;31.96
69772;BME280;57046;45.988;18.664;2023-04-27T11:58:00;101025.34;;;18.14;33.13
69772;BME280;57046;45.988;18.664;2023-04-27T12:00:25;101015.59;;;17.82;32.51
69772;BME280;57046;45.988;18.664;2023-04-27T12:02:50;101012.41;;;17.79;33.79
69772;BME280;57046;45.988;18.664;2023-04-27T12:05:16;101014.44;;;17.98;32.57
69772;BME280;57046;45.988;18.664;2023-04-27T12:07:41;101013.88;;;18.08;30.59
69772;BME280;57046;45.988;18.664;2023-04-27T12:10:07;101008.97;;;17.98;32.18
69772;BME280;57046;45.988;18.664;2023-04-27T12:12:32;101017.00;;;17.91;32.96
69772;BME280;57046;45.988;18.664;2023-04-27T12:14:57;101016.47;;;17.54;33.96
69772;BME280;57046;45.988;18.664;2023-04-27T12:17:23;101012.25;;;17.72;33.45
69772;BME280;57046;45.988;18.664;2023-04-27T12:19:48;101004.47;;;17.90;33.40
69772;BME280;57046;45.988;18.664;2023-04-27T12:22:13;100999.75;;;17.71;31.47
69772;BME280;57046;45.988;18.664;2023-04-27T12:24:39;101004.09;;;18.07;33.95
69772;BME280;57046;45.988;18.664;2023-04-27T12:27:04;101006.81;;;18.42;32.42
69772;BME280;57046;45.988;18.664;2023-04-27T12:29:29;100990.59;;;18.34;30.70
69772;BME280;57046;45.988;18.664;2023-04-27T12:31:55;100995.59;;;18.66;33.09
69772;BME280;57046;45.988;18.664;2023-04-27T12:34:20;100992.69;;;18.98;32.32
69772;BME280;57046;45.988;18.664;2023-04-27T12:36:48;100996.47;;;19.12;31.61
69772;BME280;57046;45.988;18.664;2023-04-27T12:39:18;101010.22;;;18.93;32.08
69772;BME280;57046;45.988;18.664;2023-04-27T12:41:45;100985.97;;;18.38;32.37
69772;BME280;57046;45.988;18.664;2023-04-27T12:44:10;100997.97;;;18.87;32.99
69772;BME280;57046;45.988;18.664;2023-04-27T12:46:36;100997.91;;;18.84;33.08
69772;BME280;57046;45.988;18.664;2023-04-27T12:49:02;100986.28;;;18.90;31.17